createdAt,value
2022-09-06T00:01:15.075Z,1
2022-09-06T00:02:58.776Z,1
2022-09-06T00:04:42.481Z,0
2022-09-06T00:06:26.179Z,0
2022-09-06T00:08:09.889Z,1
2022-09-06T00:09:53.579Z,1
2022-09-06T00:11:37.295Z,1
2022-09-06T00:13:20.984Z,1
2022-09-06T00:15:04.706Z,0
2022-09-06T00:16:48.382Z,1
2022-09-06T00:18:32.090Z,0
2022-09-06T00:20:15.785Z,0
2022-09-06T00:21:59.486Z,1
2022-09-06T00:23:43.196Z,1
2022-09-06T00:25:26.902Z,1
2022-09-06T00:27:10.605Z,0
2022-09-06T00:28:54.301Z,0
2022-09-06T00:30:38.004Z,1
2022-09-06T00:32:21.709Z,1
2022-09-06T00:34:05.403Z,1
2022-09-06T00:35:49.113Z,1
2022-09-06T00:37:32.816Z,1
2022-09-06T00:39:16.504Z,0
2022-09-06T00:41:00.216Z,1
2022-09-06T00:44:27.617Z,1
2022-09-06T00:46:11.318Z,1
2022-09-06T00:47:55.022Z,1
2022-09-06T00:49:38.732Z,1
2022-09-06T00:51:22.435Z,1
2022-09-06T00:53:06.134Z,1
2022-09-06T00:54:49.831Z,0
2022-09-06T00:56:33.534Z,1
2022-09-06T00:58:17.242Z,1
2022-09-06T01:00:00.939Z,1
2022-09-06T01:01:44.643Z,1
2022-09-06T01:03:28.346Z,1
2022-09-06T01:05:12.052Z,1
2022-09-06T01:06:55.753Z,0
2022-09-06T01:08:39.455Z,0
2022-09-06T01:10:23.177Z,1
2022-09-06T01:12:06.863Z,1
2022-09-06T01:13:50.561Z,1
2022-09-06T01:15:34.260Z,1
2022-09-06T01:17:17.968Z,1
2022-09-06T01:19:01.663Z,0
2022-09-06T01:20:45.367Z,0
2022-09-06T01:22:29.069Z,1
2022-09-06T01:24:12.767Z,0
2022-09-06T01:25:56.470Z,1
2022-09-06T01:27:40.181Z,1
2022-09-06T01:29:23.869Z,0
2022-09-06T01:31:07.573Z,1
2022-09-06T01:32:51.303Z,1
2022-09-06T01:34:34.978Z,1
2022-09-06T01:36:18.684Z,0
2022-09-06T01:38:02.387Z,1
2022-09-06T01:39:46.089Z,1
2022-09-06T01:41:29.798Z,0
2022-09-06T01:43:13.486Z,1
2022-09-06T01:44:57.193Z,0
2022-09-06T01:46:40.899Z,1
2022-09-06T01:48:24.596Z,1
2022-09-06T01:50:08.297Z,1
2022-09-06T01:51:52.004Z,1
2022-09-06T01:53:35.698Z,1
2022-09-06T01:55:19.401Z,0
2022-09-06T01:57:03.106Z,1
2022-09-06T01:58:46.802Z,1
2022-09-06T02:00:30.516Z,0
2022-09-06T02:02:14.209Z,1
2022-09-06T02:03:57.905Z,0
2022-09-06T02:05:41.611Z,1
2022-09-06T02:07:25.325Z,1
2022-09-06T02:09:09.021Z,1
2022-09-06T02:10:52.723Z,1
2022-09-06T02:12:36.434Z,1
2022-09-06T02:14:20.128Z,1
2022-09-06T02:16:03.835Z,1
2022-09-06T02:17:47.523Z,0
2022-09-06T02:19:31.230Z,1
2022-09-06T02:21:14.931Z,0
2022-09-06T02:22:58.627Z,1
2022-09-06T02:24:42.329Z,0
2022-09-06T02:26:26.035Z,1
2022-09-06T02:28:09.724Z,1
2022-09-06T02:29:53.426Z,1
2022-09-06T02:31:37.147Z,1
2022-09-06T02:33:20.833Z,1
2022-09-06T02:35:04.542Z,1
2022-09-06T02:36:48.232Z,1
2022-09-06T02:38:31.935Z,0
2022-09-06T02:40:15.645Z,2
2022-09-06T02:41:59.337Z,1
2022-09-06T02:43:43.045Z,1
2022-09-06T02:45:26.751Z,0
2022-09-06T02:47:10.442Z,1
2022-09-06T02:48:54.147Z,1
2022-09-06T02:50:37.854Z,1
2022-09-06T02:52:21.552Z,1
2022-09-06T02:54:05.249Z,1
2022-09-06T02:55:48.959Z,1
2022-09-06T02:57:32.645Z,0
2022-09-06T02:59:16.352Z,1
2022-09-06T03:01:00.059Z,0
2022-09-06T03:02:43.759Z,1
2022-09-06T03:04:27.466Z,1
2022-09-06T03:06:11.161Z,0
2022-09-06T03:07:54.871Z,0
2022-09-06T03:09:38.581Z,1
2022-09-06T03:11:22.267Z,1
2022-09-06T03:13:05.971Z,1
2022-09-06T03:14:49.679Z,0
2022-09-06T03:16:33.367Z,1
2022-09-06T03:18:17.078Z,1
2022-09-06T03:20:00.798Z,1
2022-09-06T03:21:44.475Z,1
2022-09-06T03:23:28.180Z,1
2022-09-06T03:25:11.889Z,1
2022-09-06T03:26:55.584Z,1
2022-09-06T03:28:39.296Z,1
2022-09-06T03:30:22.989Z,1
2022-09-06T03:32:06.708Z,1
2022-09-06T03:33:50.401Z,0
2022-09-06T03:35:34.088Z,0
2022-09-06T03:37:17.799Z,1
2022-09-06T03:39:01.497Z,1
2022-09-06T03:40:45.202Z,0
2022-09-06T03:44:12.615Z,0
2022-09-06T03:45:56.303Z,1
2022-09-06T03:47:40.011Z,1
2022-09-06T03:49:23.712Z,1
2022-09-06T03:51:07.418Z,1
2022-09-06T03:52:51.118Z,1
2022-09-06T03:54:34.821Z,1
2022-09-06T03:56:18.526Z,0
2022-09-06T03:58:02.231Z,1
2022-09-06T03:59:45.919Z,1
2022-09-06T04:01:29.631Z,1
2022-09-06T04:03:13.330Z,1
2022-09-06T04:04:57.025Z,1
2022-09-06T04:06:40.724Z,0
2022-09-06T04:08:24.435Z,1
2022-09-06T04:10:08.128Z,1
2022-09-06T04:11:51.833Z,1
2022-09-06T04:13:35.537Z,1
2022-09-06T04:15:19.244Z,1
2022-09-06T04:17:02.942Z,1
2022-09-06T04:18:46.664Z,1
2022-09-06T04:20:30.341Z,1
2022-09-06T04:22:14.051Z,1
2022-09-06T04:23:57.745Z,1
2022-09-06T04:25:41.449Z,2
2022-09-06T04:27:25.150Z,2
2022-09-06T04:29:08.850Z,3
2022-09-06T04:30:52.550Z,3
2022-09-06T04:32:36.256Z,4
2022-09-06T04:34:19.947Z,6
2022-09-06T04:36:03.655Z,9
2022-09-06T04:37:47.357Z,12
2022-09-06T04:39:31.062Z,15
2022-09-06T04:41:14.765Z,16
2022-09-06T04:42:58.471Z,16
2022-09-06T04:44:42.165Z,18
2022-09-06T04:46:25.878Z,21
2022-09-06T04:48:09.575Z,24
2022-09-06T04:49:53.277Z,28
2022-09-06T04:51:36.982Z,32
2022-09-06T04:53:20.679Z,39
2022-09-06T04:55:04.381Z,50
2022-09-06T04:56:48.078Z,60
2022-09-06T04:58:31.787Z,67
2022-09-06T05:00:15.482Z,76
2022-09-06T05:01:59.199Z,87
2022-09-06T05:03:42.887Z,98
2022-09-06T05:05:26.594Z,109
2022-09-06T05:07:10.295Z,119
2022-09-06T05:08:54.010Z,130
2022-09-06T05:10:37.707Z,141
2022-09-06T05:12:21.390Z,153
2022-09-06T05:14:05.102Z,163
2022-09-06T05:15:48.803Z,174
2022-09-06T05:17:32.503Z,188
2022-09-06T05:19:16.210Z,203
2022-09-06T05:22:43.602Z,232
2022-09-06T05:24:27.309Z,245
2022-09-06T05:26:11.009Z,278
2022-09-06T05:27:54.715Z,291
2022-09-06T05:29:38.427Z,294
2022-09-06T05:31:22.115Z,282
2022-09-06T05:33:05.816Z,282
2022-09-06T05:34:49.517Z,334
2022-09-06T05:36:33.212Z,290
2022-09-06T05:38:16.924Z,309
2022-09-06T05:40:00.628Z,294
2022-09-06T05:41:44.318Z,298
2022-09-06T05:43:28.024Z,311
2022-09-06T05:45:11.724Z,321
2022-09-06T05:46:55.427Z,335
2022-09-06T05:48:39.145Z,352
2022-09-06T05:50:22.831Z,361
2022-09-06T05:52:06.551Z,368
2022-09-06T05:53:50.234Z,365
2022-09-06T05:55:33.935Z,369
2022-09-06T05:57:17.635Z,373
2022-09-06T05:59:01.337Z,382
2022-09-06T06:00:45.038Z,387
2022-09-06T06:02:28.750Z,397
2022-09-06T06:04:12.441Z,408
2022-09-06T06:05:56.145Z,418
2022-09-06T06:07:39.849Z,428
2022-09-06T06:09:23.548Z,438
2022-09-06T06:11:07.261Z,446
2022-09-06T06:12:50.953Z,454
2022-09-06T06:14:34.648Z,463
2022-09-06T06:16:18.355Z,472
2022-09-06T06:18:02.062Z,483
2022-09-06T06:19:45.763Z,498
2022-09-06T06:21:29.457Z,520
2022-09-06T06:23:13.162Z,543
2022-09-06T06:24:56.856Z,566
2022-09-06T06:26:40.570Z,590
2022-09-06T06:28:24.259Z,608
2022-09-06T06:30:07.994Z,628
2022-09-06T06:31:51.667Z,657
2022-09-06T06:33:35.370Z,701
2022-09-06T06:35:19.083Z,744
2022-09-06T06:37:02.768Z,745
2022-09-06T06:38:46.483Z,721
2022-09-06T06:40:30.182Z,745
2022-09-06T06:42:13.873Z,745
2022-09-06T06:43:57.577Z,744
2022-09-06T06:45:41.284Z,745
2022-09-06T06:47:24.989Z,745
2022-09-06T06:49:08.691Z,745
2022-09-06T06:50:52.395Z,735
2022-09-06T06:52:36.099Z,743
2022-09-06T06:54:19.800Z,745
2022-09-06T06:56:03.496Z,745
2022-09-06T06:57:47.206Z,744
2022-09-06T06:59:30.913Z,745
2022-09-06T07:01:14.604Z,745
2022-09-06T07:02:58.303Z,744
2022-09-06T07:04:42.008Z,745
2022-09-06T07:06:25.707Z,745
2022-09-06T07:08:09.413Z,745
2022-09-06T07:09:53.128Z,743
2022-09-06T07:11:36.812Z,744
2022-09-06T07:13:20.509Z,744
2022-09-06T07:15:04.217Z,744
2022-09-06T07:16:47.916Z,744
2022-09-06T07:18:31.626Z,744
2022-09-06T07:20:15.316Z,745
2022-09-06T07:21:59.018Z,744
2022-09-06T07:23:42.728Z,744
2022-09-06T07:25:26.427Z,744
2022-09-06T07:27:10.138Z,745
2022-09-06T07:28:53.831Z,744
2022-09-06T07:30:37.528Z,744
2022-09-06T07:32:21.239Z,745
2022-09-06T07:34:04.932Z,735
2022-09-06T07:35:48.638Z,744
2022-09-06T07:37:32.337Z,744
2022-09-06T07:39:16.036Z,744
2022-09-06T07:40:59.740Z,743
2022-09-06T07:42:43.446Z,743
2022-09-06T07:44:27.137Z,744
2022-09-06T07:46:10.845Z,745
2022-09-06T07:47:54.549Z,745
2022-09-06T07:49:38.244Z,743
2022-09-06T07:51:21.943Z,745
2022-09-06T07:53:05.650Z,744
2022-09-06T07:54:49.339Z,744
2022-09-06T07:56:33.048Z,744
2022-09-06T08:00:00.451Z,745
2022-09-06T08:01:44.160Z,745
2022-09-06T08:03:27.849Z,744
2022-09-06T08:05:11.555Z,745
2022-09-06T08:06:55.263Z,744
2022-09-06T08:08:39.011Z,744
2022-09-06T08:10:22.655Z,745
2022-09-06T08:12:06.368Z,745
2022-09-06T08:13:50.065Z,744
2022-09-06T08:15:33.763Z,744
2022-09-06T08:17:17.478Z,745
2022-09-06T08:19:01.165Z,745
2022-09-06T08:20:44.870Z,744
2022-09-06T08:22:28.579Z,739
2022-09-06T08:24:12.290Z,745
2022-09-06T08:25:56.011Z,745
2022-09-06T08:27:39.673Z,744
2022-09-06T08:29:23.380Z,744
2022-09-06T08:31:07.083Z,745
2022-09-06T08:32:50.783Z,745
2022-09-06T08:34:34.479Z,744
2022-09-06T08:36:18.182Z,745
2022-09-06T08:38:01.915Z,745
2022-09-06T08:39:45.589Z,744
2022-09-06T08:41:29.296Z,735
2022-09-06T08:43:12.990Z,745
2022-09-06T08:44:56.696Z,745
2022-09-06T08:46:40.396Z,744
2022-09-06T08:48:24.098Z,744
2022-09-06T08:50:07.809Z,745
2022-09-06T08:51:51.496Z,745
2022-09-06T08:53:35.199Z,744
2022-09-06T08:55:18.909Z,745
2022-09-06T08:57:02.613Z,746
2022-09-06T08:58:46.303Z,744
2022-09-06T09:00:30.012Z,743
2022-09-06T09:02:13.705Z,745
2022-09-06T09:03:57.409Z,745
2022-09-06T09:05:41.115Z,745
2022-09-06T09:07:24.807Z,744
2022-09-06T09:09:08.513Z,745
2022-09-06T09:10:52.213Z,736
2022-09-06T09:12:35.915Z,744
2022-09-06T09:14:19.622Z,743
2022-09-06T09:16:03.328Z,745
2022-09-06T09:17:47.032Z,745
2022-09-06T09:19:30.728Z,745
2022-09-06T09:21:14.440Z,745
2022-09-06T09:22:58.134Z,745
2022-09-06T09:24:41.834Z,745
2022-09-06T09:26:25.524Z,744
2022-09-06T09:28:09.229Z,745
2022-09-06T09:29:52.941Z,745
2022-09-06T09:31:36.634Z,745
2022-09-06T09:33:20.338Z,745
2022-09-06T09:35:04.040Z,744
2022-09-06T09:36:47.733Z,745
2022-09-06T09:38:31.498Z,745
2022-09-06T09:40:15.143Z,736
2022-09-06T09:41:58.841Z,745
2022-09-06T09:43:42.550Z,745
2022-09-06T09:45:26.243Z,745
2022-09-06T09:47:09.946Z,745
2022-09-06T09:48:53.656Z,745
2022-09-06T09:50:37.399Z,745
2022-09-06T09:52:21.058Z,744
2022-09-06T09:54:04.760Z,745
2022-09-06T09:55:48.460Z,745
2022-09-06T09:57:32.155Z,744
2022-09-06T09:59:15.859Z,744
2022-09-06T10:00:59.557Z,745
2022-09-06T10:02:43.264Z,745
2022-09-06T10:04:26.963Z,743
2022-09-06T10:06:10.657Z,746
2022-09-06T10:07:54.393Z,745
2022-09-06T10:09:38.067Z,744
2022-09-06T10:11:21.766Z,745
2022-09-06T10:13:05.475Z,745
2022-09-06T10:14:49.182Z,746
2022-09-06T10:16:32.884Z,745
2022-09-06T10:18:16.579Z,745
2022-09-06T10:20:00.281Z,746
2022-09-06T10:21:43.994Z,746
2022-09-06T10:23:27.686Z,745
2022-09-06T10:25:11.388Z,746
2022-09-06T10:26:55.081Z,746
2022-09-06T10:28:38.791Z,745
2022-09-06T10:30:22.488Z,745
2022-09-06T10:32:06.181Z,746
2022-09-06T10:33:49.915Z,744
2022-09-06T10:35:33.623Z,746
2022-09-06T10:37:17.304Z,745
2022-09-06T10:39:01.004Z,746
2022-09-06T10:40:44.708Z,745
2022-09-06T10:42:28.418Z,746
2022-09-06T10:44:12.103Z,745
2022-09-06T10:45:55.844Z,745
2022-09-06T10:47:39.516Z,745
2022-09-06T10:49:23.216Z,745
2022-09-06T10:51:06.916Z,745
2022-09-06T10:52:50.619Z,741
2022-09-06T10:54:34.321Z,745
2022-09-06T10:56:18.035Z,745
2022-09-06T10:58:01.724Z,746
2022-09-06T10:59:45.428Z,746
2022-09-06T11:01:29.134Z,745
2022-09-06T11:03:12.835Z,745
2022-09-06T11:04:56.532Z,745
2022-09-06T11:06:40.251Z,745
2022-09-06T11:08:23.932Z,745
2022-09-06T11:10:07.632Z,745
2022-09-06T11:11:51.345Z,746
2022-09-06T11:13:35.045Z,745
2022-09-06T11:15:18.745Z,745
2022-09-06T11:17:02.446Z,736
2022-09-06T11:18:46.149Z,745
2022-09-06T11:20:29.854Z,745
2022-09-06T11:22:13.558Z,744
2022-09-06T11:23:57.263Z,746
2022-09-06T11:25:40.969Z,745
2022-09-06T11:27:24.658Z,745
2022-09-06T11:29:08.366Z,746
2022-09-06T11:30:52.067Z,746
2022-09-06T11:32:35.761Z,745
2022-09-06T11:34:19.469Z,745
2022-09-06T11:36:03.187Z,745
2022-09-06T11:37:46.863Z,746
2022-09-06T11:39:30.570Z,745
2022-09-06T11:41:14.276Z,743
2022-09-06T11:42:57.977Z,746
2022-09-06T11:44:41.684Z,746
2022-09-06T11:46:25.378Z,745
2022-09-06T11:48:09.086Z,746
2022-09-06T11:49:52.790Z,746
2022-09-06T11:51:36.491Z,746
2022-09-06T11:53:20.193Z,745
2022-09-06T11:55:03.891Z,746
2022-09-06T11:56:47.604Z,746
2022-09-06T11:58:31.294Z,745
2022-09-06T12:00:15.006Z,746
2022-09-06T12:01:58.699Z,745
2022-09-06T12:03:42.410Z,746
2022-09-06T12:05:26.104Z,736
2022-09-06T12:07:09.850Z,746
2022-09-06T12:08:53.519Z,746
2022-09-06T12:10:37.222Z,745
2022-09-06T12:12:20.937Z,746
2022-09-06T12:14:04.624Z,746
2022-09-06T12:15:48.326Z,746
2022-09-06T12:17:32.025Z,745
2022-09-06T12:19:15.735Z,746
2022-09-06T12:20:59.431Z,746
2022-09-06T12:22:43.138Z,745
2022-09-06T12:24:26.848Z,745
2022-09-06T12:26:10.563Z,746
2022-09-06T12:27:54.248Z,746
2022-09-06T12:29:37.948Z,744
2022-09-06T12:31:21.647Z,746
2022-09-06T12:33:05.346Z,746
2022-09-06T12:34:49.086Z,737
2022-09-06T12:36:32.753Z,745
2022-09-06T12:38:16.477Z,745
2022-09-06T12:40:00.173Z,746
2022-09-06T12:41:43.868Z,745
2022-09-06T12:43:27.575Z,746
2022-09-06T12:45:11.261Z,746
2022-09-06T12:46:54.970Z,746
2022-09-06T12:50:22.370Z,746
2022-09-06T12:52:06.077Z,747
2022-09-06T12:53:49.784Z,745
2022-09-06T12:55:33.473Z,746
2022-09-06T12:57:17.241Z,745
2022-09-06T12:59:00.883Z,737
2022-09-06T13:00:44.582Z,746
2022-09-06T13:02:28.295Z,746
2022-09-06T13:04:11.997Z,745
2022-09-06T13:05:55.701Z,747
2022-09-06T13:07:39.405Z,745
2022-09-06T13:09:23.100Z,746
2022-09-06T13:11:06.803Z,746
2022-09-06T13:12:50.512Z,746
2022-09-06T13:14:34.200Z,746
2022-09-06T13:16:17.908Z,746
2022-09-06T13:18:01.607Z,746
2022-09-06T13:19:45.325Z,745
2022-09-06T13:21:29.035Z,745
2022-09-06T13:23:12.717Z,746
2022-09-06T13:24:56.410Z,746
2022-09-06T13:26:40.119Z,745
2022-09-06T13:28:23.828Z,736
2022-09-06T13:30:07.528Z,745
2022-09-06T13:31:51.223Z,746
2022-09-06T13:33:34.926Z,746
2022-09-06T13:35:18.629Z,745
2022-09-06T13:37:02.338Z,746
2022-09-06T13:38:46.037Z,746
2022-09-06T13:40:29.738Z,745
2022-09-06T13:42:13.441Z,746
2022-09-06T13:43:57.137Z,746
2022-09-06T13:45:40.850Z,746
2022-09-06T13:47:24.549Z,745
2022-09-06T13:49:08.242Z,745
2022-09-06T13:50:51.950Z,746
2022-09-06T13:52:35.664Z,744
2022-09-06T13:54:19.357Z,746
2022-09-06T13:56:03.089Z,746
2022-09-06T13:57:46.754Z,745
2022-09-06T13:59:30.460Z,745
2022-09-06T14:01:14.167Z,745
2022-09-06T14:02:57.864Z,745
2022-09-06T14:04:41.568Z,745
2022-09-06T14:06:25.269Z,744
2022-09-06T14:08:08.973Z,746
2022-09-06T14:09:52.673Z,746
2022-09-06T14:11:36.380Z,746
2022-09-06T14:13:20.066Z,745
2022-09-06T14:15:03.778Z,745
2022-09-06T14:16:47.477Z,745
2022-09-06T14:18:31.179Z,746
2022-09-06T14:20:14.892Z,746
2022-09-06T14:21:58.593Z,745
2022-09-06T14:23:42.291Z,746
2022-09-06T14:25:25.994Z,745
2022-09-06T14:27:09.690Z,746
2022-09-06T14:28:53.394Z,746
2022-09-06T14:30:37.101Z,745
2022-09-06T14:32:20.789Z,745
2022-09-06T14:34:04.499Z,746
2022-09-06T14:35:48.200Z,745
2022-09-06T14:37:31.901Z,745
2022-09-06T14:39:15.601Z,746
2022-09-06T14:40:59.322Z,738
2022-09-06T14:42:43.017Z,747
2022-09-06T14:44:26.715Z,746
2022-09-06T14:46:10.412Z,746
2022-09-06T14:47:54.139Z,746
2022-09-06T14:49:37.852Z,746
2022-09-06T14:51:21.529Z,745
2022-09-06T14:53:05.234Z,746
2022-09-06T14:54:48.938Z,746
2022-09-06T14:56:32.637Z,746
2022-09-06T14:58:16.340Z,745
2022-09-06T15:00:00.061Z,746
2022-09-06T15:01:43.742Z,746
2022-09-06T15:03:27.442Z,746
2022-09-06T15:05:11.150Z,745
2022-09-06T15:06:54.845Z,746
2022-09-06T15:08:38.572Z,745
2022-09-06T15:10:22.255Z,745
2022-09-06T15:12:05.945Z,746
2022-09-06T15:13:49.664Z,747
2022-09-06T15:15:33.352Z,746
2022-09-06T15:17:17.060Z,746
2022-09-06T15:19:00.767Z,745
2022-09-06T15:20:44.470Z,746
2022-09-06T15:22:28.178Z,746
2022-09-06T15:24:11.870Z,747
2022-09-06T15:25:55.566Z,747
2022-09-06T15:27:39.273Z,745
2022-09-06T15:29:22.976Z,744
2022-09-06T15:31:06.668Z,746
2022-09-06T15:32:50.380Z,746
2022-09-06T15:34:34.088Z,736
2022-09-06T15:36:17.778Z,746
2022-09-06T15:38:01.480Z,746
2022-09-06T15:39:45.186Z,745
2022-09-06T15:41:28.887Z,746
2022-09-06T15:43:12.598Z,746
2022-09-06T15:44:56.288Z,746
2022-09-06T15:46:39.996Z,745
2022-09-06T15:48:23.697Z,746
2022-09-06T15:50:07.411Z,745
2022-09-06T15:51:51.101Z,746
2022-09-06T15:53:34.802Z,746
2022-09-06T15:55:18.498Z,745
2022-09-06T15:58:45.908Z,735
2022-09-06T16:00:29.609Z,745
2022-09-06T16:02:13.320Z,746
2022-09-06T16:03:57.014Z,746
2022-09-06T16:05:40.723Z,745
2022-09-06T16:07:24.422Z,745
2022-09-06T16:09:08.118Z,746
2022-09-06T16:10:51.817Z,747
2022-09-06T16:12:35.526Z,746
2022-09-06T16:14:19.222Z,745
2022-09-06T16:16:02.922Z,747
2022-09-06T16:17:46.632Z,746
2022-09-06T16:19:30.326Z,745
2022-09-06T16:21:14.031Z,746
2022-09-06T16:22:57.735Z,746
2022-09-06T16:24:41.454Z,745
2022-09-06T16:26:25.139Z,745
2022-09-06T16:28:08.841Z,745
2022-09-06T16:29:52.563Z,746
2022-09-06T16:31:36.249Z,745
2022-09-06T16:33:19.946Z,745
2022-09-06T16:35:03.651Z,746
2022-09-06T16:36:47.362Z,745
2022-09-06T16:38:31.057Z,746
2022-09-06T16:40:14.764Z,747
2022-09-06T16:41:58.479Z,746
2022-09-06T16:43:42.158Z,745
2022-09-06T16:45:25.868Z,746
2022-09-06T16:47:09.563Z,747
2022-09-06T16:48:53.266Z,746
2022-09-06T16:50:36.978Z,746
2022-09-06T16:52:20.671Z,737
2022-09-06T16:54:04.373Z,746
2022-09-06T16:55:48.078Z,746
2022-09-06T16:57:31.781Z,746
2022-09-06T16:59:15.479Z,747
2022-09-06T17:00:59.190Z,747
2022-09-06T17:02:42.880Z,746
2022-09-06T17:04:26.589Z,746
2022-09-06T17:06:10.309Z,747
2022-09-06T17:07:53.982Z,747
2022-09-06T17:09:37.710Z,746
2022-09-06T17:11:21.396Z,747
2022-09-06T17:13:05.088Z,747
2022-09-06T17:14:48.827Z,746
2022-09-06T17:16:32.503Z,737
2022-09-06T17:18:16.224Z,747
2022-09-06T17:19:59.908Z,746
2022-09-06T17:21:43.606Z,747
2022-09-06T17:23:27.314Z,745
2022-09-06T17:25:11.015Z,747
2022-09-06T17:26:54.712Z,746
2022-09-06T17:28:38.419Z,746
2022-09-06T17:30:22.157Z,746
2022-09-06T17:32:05.826Z,651
2022-09-06T17:33:49.522Z,505
2022-09-06T17:35:33.250Z,404
2022-09-06T17:37:16.930Z,334
2022-09-06T17:39:00.628Z,284
2022-09-06T17:40:44.334Z,250
2022-09-06T17:42:28.036Z,220
2022-09-06T17:44:11.757Z,196
2022-09-06T17:45:55.442Z,171
2022-09-06T17:47:39.155Z,149
2022-09-06T17:49:22.876Z,127
2022-09-06T17:51:06.548Z,105
2022-09-06T17:52:50.247Z,87
2022-09-06T17:54:33.961Z,72
2022-09-06T17:56:17.652Z,58
2022-09-06T17:58:01.364Z,47
2022-09-06T17:59:45.060Z,40
2022-09-06T18:01:28.760Z,32
2022-09-06T18:03:12.466Z,28
2022-09-06T18:04:56.167Z,24
2022-09-06T18:06:39.873Z,21
2022-09-06T18:08:23.593Z,17
2022-09-06T18:10:07.273Z,13
2022-09-06T18:11:50.971Z,10
2022-09-06T18:13:34.687Z,7
2022-09-06T18:15:18.378Z,6
2022-09-06T18:17:02.080Z,5
2022-09-06T18:18:45.795Z,9
2022-09-06T18:20:29.483Z,22
2022-09-06T18:22:13.199Z,22
2022-09-06T18:23:56.891Z,21
2022-09-06T18:25:40.582Z,20
2022-09-06T18:29:07.996Z,21
2022-09-06T18:30:51.698Z,20
2022-09-06T18:32:35.408Z,20
2022-09-06T18:34:19.101Z,21
2022-09-06T18:36:02.803Z,19
2022-09-06T18:37:46.510Z,20
2022-09-06T18:39:30.199Z,19
2022-09-06T18:41:13.917Z,20
2022-09-06T18:42:57.615Z,20
2022-09-06T18:44:41.309Z,20
2022-09-06T18:46:25.009Z,20
2022-09-06T18:48:08.728Z,19
2022-09-06T18:49:52.415Z,20
2022-09-06T18:51:36.144Z,21
2022-09-06T18:53:19.878Z,20
2022-09-06T18:55:03.525Z,19
2022-09-06T18:56:47.246Z,19
2022-09-06T18:58:30.967Z,19
2022-09-06T19:00:14.695Z,20
2022-09-06T19:01:58.349Z,19
2022-09-06T19:03:42.068Z,19
2022-09-06T19:05:25.843Z,20
2022-09-06T19:07:09.500Z,20
2022-09-06T19:08:53.152Z,20
2022-09-06T19:10:36.842Z,20
2022-09-06T19:12:20.550Z,20
2022-09-06T19:14:04.245Z,20
2022-09-06T19:15:47.949Z,21
2022-09-06T19:17:31.667Z,20
2022-09-06T19:19:15.347Z,20
2022-09-06T19:20:59.080Z,2
2022-09-06T19:22:42.758Z,2
2022-09-06T19:24:26.450Z,1
2022-09-06T19:26:10.171Z,2
2022-09-06T19:27:53.866Z,2
2022-09-06T19:29:37.557Z,3
2022-09-06T19:31:21.271Z,16
2022-09-06T19:33:04.978Z,1
2022-09-06T19:34:48.674Z,22
2022-09-06T19:36:32.380Z,20
2022-09-06T19:38:16.072Z,20
2022-09-06T19:39:59.784Z,7
2022-09-06T19:41:43.483Z,7
2022-09-06T19:43:27.186Z,7
2022-09-06T19:45:10.890Z,7
2022-09-06T19:46:54.588Z,7
2022-09-06T19:48:38.282Z,7
2022-09-06T19:50:21.993Z,7
2022-09-06T19:52:05.695Z,7
2022-09-06T19:53:49.394Z,7
2022-09-06T19:55:33.106Z,7
2022-09-06T19:57:16.833Z,7
2022-09-06T19:59:00.504Z,8
2022-09-06T20:00:44.205Z,6
2022-09-06T20:02:27.902Z,6
2022-09-06T20:04:11.617Z,7
2022-09-06T20:05:55.315Z,7
2022-09-06T20:07:39.009Z,7
2022-09-06T20:09:22.715Z,6
2022-09-06T20:11:06.428Z,6
2022-09-06T20:12:50.122Z,7
2022-09-06T20:14:33.820Z,7
2022-09-06T20:16:17.521Z,7
2022-09-06T20:18:01.219Z,7
2022-09-06T20:21:28.636Z,7
2022-09-06T20:23:12.344Z,7
2022-09-06T20:24:56.064Z,7
2022-09-06T20:26:39.747Z,1
2022-09-06T20:28:23.467Z,1
2022-09-06T20:30:07.159Z,1
2022-09-06T20:31:50.847Z,1
2022-09-06T20:33:34.546Z,1
2022-09-06T20:35:18.253Z,1
2022-09-06T20:37:01.949Z,0
2022-09-06T20:38:45.651Z,1
2022-09-06T20:40:29.360Z,1
2022-09-06T20:42:13.052Z,1
2022-09-06T20:43:56.760Z,8
2022-09-06T20:45:40.460Z,7
2022-09-06T20:47:24.167Z,7
2022-09-06T20:49:07.868Z,7
2022-09-06T20:50:51.562Z,7
2022-09-06T20:52:35.276Z,7
2022-09-06T20:54:18.974Z,7
2022-09-06T20:56:02.678Z,7
2022-09-06T20:57:46.373Z,6
2022-09-06T20:59:30.081Z,7
2022-09-06T21:01:13.776Z,7
2022-09-06T21:02:57.482Z,7
2022-09-06T21:04:41.205Z,7
2022-09-06T21:06:24.886Z,1
2022-09-06T21:08:08.594Z,1
2022-09-06T21:09:52.294Z,1
2022-09-06T21:11:35.995Z,1
2022-09-06T21:13:19.696Z,1
2022-09-06T21:15:03.399Z,7
2022-09-06T21:16:47.100Z,7
2022-09-06T21:18:30.827Z,7
2022-09-06T21:20:14.503Z,7
2022-09-06T21:21:58.206Z,7
2022-09-06T21:23:41.913Z,7
2022-09-06T21:25:25.608Z,7
2022-09-06T21:27:09.336Z,7
2022-09-06T21:28:53.013Z,7
2022-09-06T21:30:36.720Z,7
2022-09-06T21:32:20.423Z,6
2022-09-06T21:34:04.125Z,8
2022-09-06T21:35:47.825Z,8
2022-09-06T21:37:31.528Z,7
2022-09-06T21:39:15.225Z,2
2022-09-06T21:40:58.931Z,0
2022-09-06T21:42:42.638Z,1
2022-09-06T21:44:26.337Z,1
2022-09-06T21:46:10.043Z,2
2022-09-06T21:47:53.748Z,1
2022-09-06T21:49:37.438Z,1
2022-09-06T21:51:21.147Z,0
2022-09-06T21:53:04.857Z,1
2022-09-06T21:54:48.546Z,1
2022-09-06T21:56:32.250Z,0
2022-09-06T21:58:15.961Z,0
2022-09-06T21:59:59.654Z,1
2022-09-06T22:01:43.356Z,1
2022-09-06T22:03:27.071Z,1
2022-09-06T22:05:10.766Z,1
2022-09-06T22:06:54.469Z,1
2022-09-06T22:08:38.166Z,1
2022-09-06T22:10:21.904Z,1
2022-09-06T22:12:05.577Z,1
2022-09-06T22:13:49.276Z,1
2022-09-06T22:15:32.976Z,1
2022-09-06T22:17:16.690Z,1
2022-09-06T22:19:00.375Z,1
2022-09-06T22:20:44.091Z,0
2022-09-06T22:22:27.785Z,1
2022-09-06T22:24:11.478Z,1
2022-09-06T22:25:55.180Z,1
2022-09-06T22:27:38.897Z,1
2022-09-06T22:29:22.588Z,1
2022-09-06T22:31:06.291Z,1
2022-09-06T22:32:49.991Z,1
2022-09-06T22:34:33.700Z,0
2022-09-06T22:36:17.402Z,1
2022-09-06T22:38:01.094Z,1
2022-09-06T22:39:44.803Z,1
2022-09-06T22:41:28.508Z,0
2022-09-06T22:43:12.198Z,1
2022-09-06T22:44:55.904Z,1
2022-09-06T22:46:39.605Z,1
2022-09-06T22:48:23.330Z,1
2022-09-06T22:50:07.015Z,1
2022-09-06T22:51:50.715Z,0
2022-09-06T22:53:34.399Z,1
2022-09-06T22:55:18.108Z,1
2022-09-06T22:57:01.813Z,1
2022-09-06T22:58:45.527Z,1
2022-09-06T23:00:29.219Z,1
2022-09-06T23:02:12.914Z,1
2022-09-06T23:03:56.615Z,0
2022-09-06T23:05:40.320Z,1
2022-09-06T23:07:24.016Z,0
2022-09-06T23:09:07.723Z,0
2022-09-06T23:10:51.424Z,1
2022-09-06T23:12:35.117Z,1
2022-09-06T23:14:18.820Z,0
2022-09-06T23:16:02.533Z,1
2022-09-06T23:17:46.219Z,1
2022-09-06T23:19:29.921Z,1
2022-09-06T23:21:13.629Z,1
2022-09-06T23:22:57.322Z,1
2022-09-06T23:24:41.047Z,0
2022-09-06T23:26:24.728Z,1
2022-09-06T23:28:08.464Z,0
2022-09-06T23:29:52.133Z,1
2022-09-06T23:31:35.827Z,1
2022-09-06T23:35:03.234Z,0
2022-09-06T23:36:46.935Z,1
2022-09-06T23:38:30.634Z,1
2022-09-06T23:40:14.338Z,1
2022-09-06T23:41:58.036Z,1
2022-09-06T23:43:41.736Z,1
2022-09-06T23:45:25.442Z,1
2022-09-06T23:47:09.139Z,1
2022-09-06T23:48:52.849Z,1
2022-09-06T23:50:36.550Z,0
2022-09-06T23:52:20.250Z,0
2022-09-06T23:54:03.970Z,1
2022-09-06T23:55:47.654Z,1
2022-09-06T23:57:31.363Z,1
2022-09-06T23:59:15.062Z,1
